sensor_id;sensor_type;location;lat;lon;timestamp;P1;durP1;ratioP1;P2;durP2;ratioP2
61460;SDS011;47325;50.506;4.472;2023-11-21T00:02:44;11.00;;;5.30;;
61460;SDS011;47325;50.506;4.472;2023-11-21T00:08:28;10.20;;;4.90;;
61460;SDS011;47325;50.506;4.472;2023-11-21T00:14:12;9.30;;;5.10;;
61460;SDS011;47325;50.506;4.472;2023-11-21T00:19:56;10.50;;;5.30;;
61460;SDS011;47325;50.506;4.472;2023-11-21T00:25:40;9.00;;;5.10;;
61460;SDS011;47325;50.506;4.472;2023-11-21T00:31:24;7.80;;;4.50;;
61460;SDS011;47325;50.506;4.472;2023-11-21T00:37:08;10.50;;;5.00;;
61460;SDS011;47325;50.506;4.472;2023-11-21T00:42:53;10.30;;;5.30;;
61460;SDS011;47325;50.506;4.472;2023-11-21T00:48:37;8.70;;;5.00;;
61460;SDS011;47325;50.506;4.472;2023-11-21T00:54:21;10.80;;;5.40;;
61460;SDS011;47325;50.506;4.472;2023-11-21T01:00:05;9.50;;;5.10;;
61460;SDS011;47325;50.506;4.472;2023-11-21T01:05:50;11.50;;;5.70;;
61460;SDS011;47325;50.506;4.472;2023-11-21T01:11:35;11.00;;;5.50;;
61460;SDS011;47325;50.506;4.472;2023-11-21T01:17:19;11.20;;;5.80;;
61460;SDS011;47325;50.506;4.472;2023-11-21T01:23:03;10.40;;;5.60;;
61460;SDS011;47325;50.506;4.472;2023-11-21T01:28:47;9.40;;;5.30;;
61460;SDS011;47325;50.506;4.472;2023-11-21T01:34:31;8.90;;;5.20;;
61460;SDS011;47325;50.506;4.472;2023-11-21T01:40:15;9.90;;;5.50;;
61460;SDS011;47325;50.506;4.472;2023-11-21T01:46:00;10.10;;;5.70;;
61460;SDS011;47325;50.506;4.472;2023-11-21T01:51:45;10.70;;;5.90;;
61460;SDS011;47325;50.506;4.472;2023-11-21T01:57:32;10.10;;;6.00;;
61460;SDS011;47325;50.506;4.472;2023-11-21T02:03:19;10.60;;;6.20;;
61460;SDS011;47325;50.506;4.472;2023-11-21T02:09:04;10.00;;;6.00;;
61460;SDS011;47325;50.506;4.472;2023-11-21T02:14:48;15.30;;;7.20;;
61460;SDS011;47325;50.506;4.472;2023-11-21T02:20:32;11.90;;;6.60;;
61460;SDS011;47325;50.506;4.472;2023-11-21T02:26:17;14.00;;;7.20;;
61460;SDS011;47325;50.506;4.472;2023-11-21T02:32:03;13.50;;;6.90;;
61460;SDS011;47325;50.506;4.472;2023-11-21T02:37:47;13.70;;;7.30;;
61460;SDS011;47325;50.506;4.472;2023-11-21T02:43:31;13.40;;;7.20;;
61460;SDS011;47325;50.506;4.472;2023-11-21T02:49:16;13.60;;;7.30;;
61460;SDS011;47325;50.506;4.472;2023-11-21T02:55:00;15.00;;;7.30;;
61460;SDS011;47325;50.506;4.472;2023-11-21T03:00:44;14.50;;;7.00;;
61460;SDS011;47325;50.506;4.472;2023-11-21T03:06:28;13.10;;;7.30;;
61460;SDS011;47325;50.506;4.472;2023-11-21T03:12:12;17.70;;;7.80;;
61460;SDS011;47325;50.506;4.472;2023-11-21T03:17:57;13.80;;;7.40;;
61460;SDS011;47325;50.506;4.472;2023-11-21T03:23:42;16.40;;;7.90;;
61460;SDS011;47325;50.506;4.472;2023-11-21T03:29:26;16.70;;;8.10;;
61460;SDS011;47325;50.506;4.472;2023-11-21T03:35:11;14.80;;;7.70;;
61460;SDS011;47325;50.506;4.472;2023-11-21T03:40:56;16.40;;;8.00;;
61460;SDS011;47325;50.506;4.472;2023-11-21T03:46:40;15.70;;;8.00;;
61460;SDS011;47325;50.506;4.472;2023-11-21T03:52:25;16.90;;;8.60;;
61460;SDS011;47325;50.506;4.472;2023-11-21T03:58:12;16.80;;;8.20;;
61460;SDS011;47325;50.506;4.472;2023-11-21T04:04:02;16.10;;;7.90;;
61460;SDS011;47325;50.506;4.472;2023-11-21T04:09:48;18.90;;;8.40;;
61460;SDS011;47325;50.506;4.472;2023-11-21T04:15:32;17.60;;;8.60;;
61460;SDS011;47325;50.506;4.472;2023-11-21T04:21:16;15.80;;;8.30;;
61460;SDS011;47325;50.506;4.472;2023-11-21T04:27:01;16.00;;;7.80;;
61460;SDS011;47325;50.506;4.472;2023-11-21T04:32:45;18.40;;;8.20;;
61460;SDS011;47325;50.506;4.472;2023-11-21T04:38:29;18.60;;;8.70;;
61460;SDS011;47325;50.506;4.472;2023-11-21T04:44:13;18.60;;;8.50;;
61460;SDS011;47325;50.506;4.472;2023-11-21T04:49:57;16.40;;;8.60;;
61460;SDS011;47325;50.506;4.472;2023-11-21T04:55:41;19.00;;;8.60;;
61460;SDS011;47325;50.506;4.472;2023-11-21T05:01:26;18.00;;;8.40;;
61460;SDS011;47325;50.506;4.472;2023-11-21T05:07:10;19.60;;;9.00;;
61460;SDS011;47325;50.506;4.472;2023-11-21T05:12:54;18.80;;;8.90;;
61460;SDS011;47325;50.506;4.472;2023-11-21T05:18:38;17.20;;;8.90;;
61460;SDS011;47325;50.506;4.472;2023-11-21T05:24:22;19.50;;;9.60;;
61460;SDS011;47325;50.506;4.472;2023-11-21T05:30:06;18.20;;;9.40;;
61460;SDS011;47325;50.506;4.472;2023-11-21T05:35:51;17.90;;;9.10;;
61460;SDS011;47325;50.506;4.472;2023-11-21T05:41:35;16.80;;;8.70;;
61460;SDS011;47325;50.506;4.472;2023-11-21T05:47:19;19.00;;;9.30;;
61460;SDS011;47325;50.506;4.472;2023-11-21T05:53:03;17.10;;;8.60;;
61460;SDS011;47325;50.506;4.472;2023-11-21T05:58:49;17.10;;;9.30;;
61460;SDS011;47325;50.506;4.472;2023-11-21T06:04:39;19.40;;;9.50;;
61460;SDS011;47325;50.506;4.472;2023-11-21T06:10:23;18.90;;;9.20;;
61460;SDS011;47325;50.506;4.472;2023-11-21T06:16:09;22.70;;;9.60;;
61460;SDS011;47325;50.506;4.472;2023-11-21T06:21:53;17.90;;;8.90;;
61460;SDS011;47325;50.506;4.472;2023-11-21T06:27:38;20.50;;;9.80;;
61460;SDS011;47325;50.506;4.472;2023-11-21T06:33:22;20.00;;;9.80;;
61460;SDS011;47325;50.506;4.472;2023-11-21T06:39:06;19.00;;;9.40;;
61460;SDS011;47325;50.506;4.472;2023-11-21T06:44:50;19.20;;;9.50;;
61460;SDS011;47325;50.506;4.472;2023-11-21T06:50:34;19.50;;;9.40;;
61460;SDS011;47325;50.506;4.472;2023-11-21T06:56:21;19.60;;;9.20;;
61460;SDS011;47325;50.506;4.472;2023-11-21T07:02:05;19.80;;;9.20;;
61460;SDS011;47325;50.506;4.472;2023-11-21T07:07:49;18.30;;;9.20;;
61460;SDS011;47325;50.506;4.472;2023-11-21T07:13:35;20.60;;;9.10;;
61460;SDS011;47325;50.506;4.472;2023-11-21T07:19:19;19.30;;;9.40;;
61460;SDS011;47325;50.506;4.472;2023-11-21T07:25:03;20.80;;;9.00;;
61460;SDS011;47325;50.506;4.472;2023-11-21T07:30:48;18.30;;;9.30;;
61460;SDS011;47325;50.506;4.472;2023-11-21T07:36:32;20.00;;;10.00;;
61460;SDS011;47325;50.506;4.472;2023-11-21T07:42:16;20.70;;;9.50;;
61460;SDS011;47325;50.506;4.472;2023-11-21T07:47:59;20.00;;;9.80;;
61460;SDS011;47325;50.506;4.472;2023-11-21T07:53:44;20.50;;;9.40;;
61460;SDS011;47325;50.506;4.472;2023-11-21T07:59:29;19.40;;;9.30;;
61460;SDS011;47325;50.506;4.472;2023-11-21T08:05:14;20.80;;;9.80;;
61460;SDS011;47325;50.506;4.472;2023-11-21T08:11:17;19.80;;;9.30;;
61460;SDS011;47325;50.506;4.472;2023-11-21T08:17:10;20.40;;;9.30;;
61460;SDS011;47325;50.506;4.472;2023-11-21T08:22:59;19.50;;;9.10;;
61460;SDS011;47325;50.506;4.472;2023-11-21T08:28:44;18.10;;;9.20;;
61460;SDS011;47325;50.506;4.472;2023-11-21T08:34:29;20.30;;;9.60;;
61460;SDS011;47325;50.506;4.472;2023-11-21T08:40:13;18.20;;;9.30;;
61460;SDS011;47325;50.506;4.472;2023-11-21T08:45:58;18.70;;;9.30;;
61460;SDS011;47325;50.506;4.472;2023-11-21T08:51:43;19.50;;;9.20;;
61460;SDS011;47325;50.506;4.472;2023-11-21T08:57:28;20.30;;;9.10;;
61460;SDS011;47325;50.506;4.472;2023-11-21T09:03:12;17.80;;;9.00;;
61460;SDS011;47325;50.506;4.472;2023-11-21T09:08:57;20.80;;;9.30;;
61460;SDS011;47325;50.506;4.472;2023-11-21T09:14:42;22.50;;;9.90;;
61460;SDS011;47325;50.506;4.472;2023-11-21T09:20:26;16.90;;;8.80;;
61460;SDS011;47325;50.506;4.472;2023-11-21T09:26:10;18.90;;;9.70;;
61460;SDS011;47325;50.506;4.472;2023-11-21T09:31:54;19.20;;;8.70;;
61460;SDS011;47325;50.506;4.472;2023-11-21T09:37:38;19.60;;;9.40;;
61460;SDS011;47325;50.506;4.472;2023-11-21T09:43:24;18.80;;;8.40;;
61460;SDS011;47325;50.506;4.472;2023-11-21T09:49:09;17.10;;;8.60;;
61460;SDS011;47325;50.506;4.472;2023-11-21T09:54:54;15.50;;;7.90;;
61460;SDS011;47325;50.506;4.472;2023-11-21T10:00:38;17.50;;;8.70;;
61460;SDS011;47325;50.506;4.472;2023-11-21T10:06:24;20.60;;;8.80;;
61460;SDS011;47325;50.506;4.472;2023-11-21T10:12:08;16.80;;;8.30;;
61460;SDS011;47325;50.506;4.472;2023-11-21T10:17:54;21.30;;;8.30;;
61460;SDS011;47325;50.506;4.472;2023-11-21T10:23:38;16.60;;;8.50;;
61460;SDS011;47325;50.506;4.472;2023-11-21T10:29:22;17.80;;;8.30;;
61460;SDS011;47325;50.506;4.472;2023-11-21T10:35:07;19.20;;;8.80;;
61460;SDS011;47325;50.506;4.472;2023-11-21T10:40:51;20.20;;;9.20;;
61460;SDS011;47325;50.506;4.472;2023-11-21T10:46:35;18.60;;;8.40;;
61460;SDS011;47325;50.506;4.472;2023-11-21T10:52:20;17.80;;;8.70;;
61460;SDS011;47325;50.506;4.472;2023-11-21T10:58:04;17.70;;;8.80;;
61460;SDS011;47325;50.506;4.472;2023-11-21T11:03:49;19.20;;;9.10;;
61460;SDS011;47325;50.506;4.472;2023-11-21T11:09:35;17.90;;;8.60;;
61460;SDS011;47325;50.506;4.472;2023-11-21T11:15:19;16.30;;;8.00;;
61460;SDS011;47325;50.506;4.472;2023-11-21T11:21:05;15.70;;;8.20;;
61460;SDS011;47325;50.506;4.472;2023-11-21T11:26:51;17.50;;;8.20;;
61460;SDS011;47325;50.506;4.472;2023-11-21T11:32:40;16.60;;;8.10;;
61460;SDS011;47325;50.506;4.472;2023-11-21T11:38:28;15.40;;;8.20;;
61460;SDS011;47325;50.506;4.472;2023-11-21T11:50:13;15.10;;;8.00;;
61460;SDS011;47325;50.506;4.472;2023-11-21T11:56:01;14.80;;;7.10;;
61460;SDS011;47325;50.506;4.472;2023-11-21T12:01:50;31.90;;;15.40;;
61460;SDS011;47325;50.506;4.472;2023-11-21T12:07:42;21.20;;;10.80;;
61460;SDS011;47325;50.506;4.472;2023-11-21T12:13:28;20.30;;;10.50;;
61460;SDS011;47325;50.506;4.472;2023-11-21T12:19:13;19.60;;;10.10;;
61460;SDS011;47325;50.506;4.472;2023-11-21T12:24:57;19.90;;;9.30;;
61460;SDS011;47325;50.506;4.472;2023-11-21T12:30:43;19.10;;;9.40;;
61460;SDS011;47325;50.506;4.472;2023-11-21T12:36:29;16.70;;;8.70;;
61460;SDS011;47325;50.506;4.472;2023-11-21T12:42:14;14.00;;;8.40;;
61460;SDS011;47325;50.506;4.472;2023-11-21T12:47:59;16.70;;;8.60;;
61460;SDS011;47325;50.506;4.472;2023-11-21T12:53:44;15.80;;;8.90;;
61460;SDS011;47325;50.506;4.472;2023-11-21T12:59:29;14.40;;;8.30;;
61460;SDS011;47325;50.506;4.472;2023-11-21T13:05:15;15.60;;;8.40;;
61460;SDS011;47325;50.506;4.472;2023-11-21T13:11:05;31.50;;;14.90;;
61460;SDS011;47325;50.506;4.472;2023-11-21T13:16:50;25.90;;;12.80;;
61460;SDS011;47325;50.506;4.472;2023-11-21T13:22:34;27.80;;;14.30;;
61460;SDS011;47325;50.506;4.472;2023-11-21T13:28:19;26.40;;;12.90;;
61460;SDS011;47325;50.506;4.472;2023-11-21T13:34:04;24.10;;;13.60;;
61460;SDS011;47325;50.506;4.472;2023-11-21T13:39:50;27.40;;;14.40;;
61460;SDS011;47325;50.506;4.472;2023-11-21T13:45:36;24.70;;;13.80;;
61460;SDS011;47325;50.506;4.472;2023-11-21T13:51:22;26.10;;;13.50;;
61460;SDS011;47325;50.506;4.472;2023-11-21T13:57:07;26.40;;;13.20;;
61460;SDS011;47325;50.506;4.472;2023-11-21T14:02:52;23.50;;;13.40;;
61460;SDS011;47325;50.506;4.472;2023-11-21T14:08:37;23.90;;;13.00;;
61460;SDS011;47325;50.506;4.472;2023-11-21T14:14:21;24.00;;;12.40;;
61460;SDS011;47325;50.506;4.472;2023-11-21T14:20:07;21.70;;;12.20;;
61460;SDS011;47325;50.506;4.472;2023-11-21T14:25:51;20.10;;;11.10;;
61460;SDS011;47325;50.506;4.472;2023-11-21T14:31:36;20.90;;;10.60;;
61460;SDS011;47325;50.506;4.472;2023-11-21T14:37:23;20.20;;;10.40;;
61460;SDS011;47325;50.506;4.472;2023-11-21T14:43:07;17.00;;;9.90;;
61460;SDS011;47325;50.506;4.472;2023-11-21T14:48:51;18.90;;;9.80;;
61460;SDS011;47325;50.506;4.472;2023-11-21T14:54:35;18.00;;;9.90;;
61460;SDS011;47325;50.506;4.472;2023-11-21T15:00:20;16.00;;;9.60;;
61460;SDS011;47325;50.506;4.472;2023-11-21T15:06:05;16.10;;;9.10;;
61460;SDS011;47325;50.506;4.472;2023-11-21T15:11:50;14.00;;;8.20;;
61460;SDS011;47325;50.506;4.472;2023-11-21T15:17:34;14.00;;;8.00;;
61460;SDS011;47325;50.506;4.472;2023-11-21T15:23:18;14.20;;;7.70;;
61460;SDS011;47325;50.506;4.472;2023-11-21T15:29:03;12.50;;;7.40;;
61460;SDS011;47325;50.506;4.472;2023-11-21T15:34:47;12.40;;;7.50;;
61460;SDS011;47325;50.506;4.472;2023-11-21T15:40:32;9.80;;;6.70;;
61460;SDS011;47325;50.506;4.472;2023-11-21T15:46:16;10.50;;;6.50;;
61460;SDS011;47325;50.506;4.472;2023-11-21T15:52:00;9.70;;;6.10;;
61460;SDS011;47325;50.506;4.472;2023-11-21T15:57:44;9.10;;;6.00;;
61460;SDS011;47325;50.506;4.472;2023-11-21T16:03:29;9.70;;;6.30;;
61460;SDS011;47325;50.506;4.472;2023-11-21T16:09:13;8.90;;;5.60;;
61460;SDS011;47325;50.506;4.472;2023-11-21T16:14:57;9.20;;;5.30;;
61460;SDS011;47325;50.506;4.472;2023-11-21T16:20:42;7.70;;;5.00;;
61460;SDS011;47325;50.506;4.472;2023-11-21T16:26:26;6.80;;;4.50;;
61460;SDS011;47325;50.506;4.472;2023-11-21T16:32:11;7.50;;;4.20;;
61460;SDS011;47325;50.506;4.472;2023-11-21T16:37:56;6.40;;;4.30;;
61460;SDS011;47325;50.506;4.472;2023-11-21T16:43:40;6.80;;;3.90;;
61460;SDS011;47325;50.506;4.472;2023-11-21T16:49:24;6.60;;;3.60;;
61460;SDS011;47325;50.506;4.472;2023-11-21T16:55:09;6.80;;;3.90;;
61460;SDS011;47325;50.506;4.472;2023-11-21T17:00:53;7.50;;;4.40;;
61460;SDS011;47325;50.506;4.472;2023-11-21T17:06:39;6.60;;;3.80;;
61460;SDS011;47325;50.506;4.472;2023-11-21T17:12:23;8.10;;;4.00;;
61460;SDS011;47325;50.506;4.472;2023-11-21T17:18:07;6.30;;;3.80;;
61460;SDS011;47325;50.506;4.472;2023-11-21T17:23:53;8.40;;;4.60;;
61460;SDS011;47325;50.506;4.472;2023-11-21T17:29:37;9.70;;;4.60;;
61460;SDS011;47325;50.506;4.472;2023-11-21T17:35:22;7.80;;;4.80;;
61460;SDS011;47325;50.506;4.472;2023-11-21T17:41:06;8.60;;;5.10;;
61460;SDS011;47325;50.506;4.472;2023-11-21T17:46:49;8.90;;;4.90;;
61460;SDS011;47325;50.506;4.472;2023-11-21T17:52:34;8.50;;;4.90;;
61460;SDS011;47325;50.506;4.472;2023-11-21T17:58:19;7.40;;;4.40;;
61460;SDS011;47325;50.506;4.472;2023-11-21T18:04:03;7.20;;;4.60;;
61460;SDS011;47325;50.506;4.472;2023-11-21T18:09:47;7.70;;;4.50;;
61460;SDS011;47325;50.506;4.472;2023-11-21T18:15:31;7.50;;;4.60;;
61460;SDS011;47325;50.506;4.472;2023-11-21T18:21:15;8.40;;;5.10;;
61460;SDS011;47325;50.506;4.472;2023-11-21T18:26:59;8.00;;;4.70;;
61460;SDS011;47325;50.506;4.472;2023-11-21T18:32:43;7.90;;;5.00;;
61460;SDS011;47325;50.506;4.472;2023-11-21T18:38:29;7.60;;;5.30;;
61460;SDS011;47325;50.506;4.472;2023-11-21T18:44:13;8.20;;;4.60;;
61460;SDS011;47325;50.506;4.472;2023-11-21T18:49:59;8.80;;;5.30;;
61460;SDS011;47325;50.506;4.472;2023-11-21T18:55:43;10.50;;;5.60;;
61460;SDS011;47325;50.506;4.472;2023-11-21T19:01:29;8.90;;;5.50;;
61460;SDS011;47325;50.506;4.472;2023-11-21T19:07:13;8.50;;;5.40;;
61460;SDS011;47325;50.506;4.472;2023-11-21T19:13:02;8.90;;;5.60;;
61460;SDS011;47325;50.506;4.472;2023-11-21T19:18:46;9.10;;;5.50;;
61460;SDS011;47325;50.506;4.472;2023-11-21T19:24:31;8.90;;;5.60;;
61460;SDS011;47325;50.506;4.472;2023-11-21T19:30:15;9.60;;;5.50;;
61460;SDS011;47325;50.506;4.472;2023-11-21T19:35:59;9.40;;;5.70;;
61460;SDS011;47325;50.506;4.472;2023-11-21T19:41:43;10.30;;;6.00;;
61460;SDS011;47325;50.506;4.472;2023-11-21T19:47:27;9.00;;;5.60;;
61460;SDS011;47325;50.506;4.472;2023-11-21T19:53:12;8.80;;;5.40;;
61460;SDS011;47325;50.506;4.472;2023-11-21T19:58:57;9.40;;;5.70;;
61460;SDS011;47325;50.506;4.472;2023-11-21T20:04:41;10.90;;;5.60;;
61460;SDS011;47325;50.506;4.472;2023-11-21T20:10:25;8.60;;;5.20;;
61460;SDS011;47325;50.506;4.472;2023-11-21T20:16:09;8.90;;;5.30;;
61460;SDS011;47325;50.506;4.472;2023-11-21T20:21:53;8.80;;;5.20;;
61460;SDS011;47325;50.506;4.472;2023-11-21T20:27:37;8.80;;;5.30;;
61460;SDS011;47325;50.506;4.472;2023-11-21T20:33:21;9.50;;;5.10;;
61460;SDS011;47325;50.506;4.472;2023-11-21T20:39:05;9.80;;;5.40;;
61460;SDS011;47325;50.506;4.472;2023-11-21T20:44:49;7.80;;;4.60;;
61460;SDS011;47325;50.506;4.472;2023-11-21T20:50:34;8.30;;;4.40;;
61460;SDS011;47325;50.506;4.472;2023-11-21T20:56:18;8.50;;;5.10;;
61460;SDS011;47325;50.506;4.472;2023-11-21T21:02:03;8.50;;;4.70;;
61460;SDS011;47325;50.506;4.472;2023-11-21T21:07:48;7.10;;;4.40;;
61460;SDS011;47325;50.506;4.472;2023-11-21T21:13:33;9.60;;;4.90;;
61460;SDS011;47325;50.506;4.472;2023-11-21T21:19:16;9.80;;;5.40;;
61460;SDS011;47325;50.506;4.472;2023-11-21T21:25:01;9.80;;;5.70;;
61460;SDS011;47325;50.506;4.472;2023-11-21T21:30:44;9.90;;;5.60;;
61460;SDS011;47325;50.506;4.472;2023-11-21T21:36:28;10.70;;;5.70;;
61460;SDS011;47325;50.506;4.472;2023-11-21T21:42:13;10.60;;;6.20;;
61460;SDS011;47325;50.506;4.472;2023-11-21T21:47:59;12.20;;;6.90;;
61460;SDS011;47325;50.506;4.472;2023-11-21T21:53:45;13.50;;;6.80;;
61460;SDS011;47325;50.506;4.472;2023-11-21T21:59:29;10.00;;;6.40;;
61460;SDS011;47325;50.506;4.472;2023-11-21T22:05:13;12.20;;;7.10;;
61460;SDS011;47325;50.506;4.472;2023-11-21T22:10:58;11.20;;;7.10;;
61460;SDS011;47325;50.506;4.472;2023-11-21T22:16:43;12.30;;;7.30;;
61460;SDS011;47325;50.506;4.472;2023-11-21T22:22:27;11.60;;;6.90;;
61460;SDS011;47325;50.506;4.472;2023-11-21T22:28:12;10.90;;;6.40;;
61460;SDS011;47325;50.506;4.472;2023-11-21T22:33:56;11.10;;;6.60;;
61460;SDS011;47325;50.506;4.472;2023-11-21T22:39:40;10.40;;;6.40;;
61460;SDS011;47325;50.506;4.472;2023-11-21T22:45:24;10.70;;;6.50;;
61460;SDS011;47325;50.506;4.472;2023-11-21T22:51:08;10.80;;;6.30;;
61460;SDS011;47325;50.506;4.472;2023-11-21T22:56:53;9.90;;;6.00;;
61460;SDS011;47325;50.506;4.472;2023-11-21T23:02:38;11.40;;;6.90;;
61460;SDS011;47325;50.506;4.472;2023-11-21T23:08:23;10.20;;;6.20;;
61460;SDS011;47325;50.506;4.472;2023-11-21T23:14:07;11.30;;;6.70;;
61460;SDS011;47325;50.506;4.472;2023-11-21T23:19:52;9.40;;;6.50;;
61460;SDS011;47325;50.506;4.472;2023-11-21T23:25:41;10.30;;;6.60;;
61460;SDS011;47325;50.506;4.472;2023-11-21T23:31:25;11.00;;;7.20;;
61460;SDS011;47325;50.506;4.472;2023-11-21T23:37:09;11.40;;;7.10;;
61460;SDS011;47325;50.506;4.472;2023-11-21T23:42:54;10.80;;;7.10;;
61460;SDS011;47325;50.506;4.472;2023-11-21T23:48:39;12.00;;;7.70;;
61460;SDS011;47325;50.506;4.472;2023-11-21T23:54:24;13.20;;;8.00;;
